Main page
METAR-TAF:

METAR-TAF

Airports :

Fort Lauderdale Executive Airport

Fort Lauderdale, Florida, United States

latitude: 26-12-00N, longitude: 080-11-00W, elevation: 13 ft

Current weather observation

The report was made 1 hour and 2 minutes ago, at 19:53 UTC
Wind 16 mph from the East/Southeast with gusts up to 22 mph
Temperature 82°F
Humidity 58%
Pressure 30.16 in. Hg
Visibility: 10 miles
Scattered clouds at a height of 2900 ft
Scattered clouds at a height of 3600 ft

METAR: KFXE 271953Z 11014G19KT 10SM SCT029 SCT036 28/19 A3016 RMK AO2 SLP216 T02780194

Time: 15:55 (20:55 UTC)

Forecast

The report was made 3 hours and 28 minutes ago, at 17:27 UTC
Forecast valid from 27 at 18 UTC to 28 at 18 UTC
Wind 15 mph from the Southeast
Visibility: 6 miles
Scattered clouds at a height of 3000 ft
From 28 at 0300 UTC
Wind 15 mph from the East/Southeast
Visibility: 6 miles
Few clouds at a height of 2000 ft

TAF: KFXE 271727Z 2718/2818 13013KT P6SM SCT030 FM280300 11013KT P6SM FEW020

Weather observations and forecasts of more than 4000 airports (METAR and TAF reports).

The available stations are represented by yellow and red dots on the map.

Hover mouse over dot to see the name of the station.

Then click to see weather observations and forecasts.

To change the map : click on the green buttons with a black cross to zoom in, on the green button with a dash to zoom out, or on the green arrows for adjacent maps.


METAR-TAF: